Список аэропортов
Фактическая погода:

23 апреля, 12:00
Температура: +11°C (+8.0*)
Ветер: юго-западный 8 м/с
Давление: *755 мм
неб. облачность
600 м
Время (МСК)Темп. СВетерВлажностьДавлениеОблачностьОсадки
09:00+6ЮЗ, 6 м/с84%1006 гПаоблачно
10:00+8ЮЗ, 6 м/с74%1007 гПас прояснениями
11:00+11ЮЗ, 6 м/с67%1007 гПамалооблачно
12:00+12ЮЗ, 6 м/с59%1008 гПамалооблачно
13:00+13ЮЗ, 7 м/с53%1008 гПамалооблачно
14:00+14ЮЗ, 6 м/с50%1008 гПамалооблачно
15:00+14ЮЗ, 6 м/с47%1008 гПамалооблачно
16:00+14ЮЗ, 6 м/с48%1008 гПас прояснениями
17:00+13ЮЗ, 4 м/с51%1008 гПаоблачно
18:00+12ЮЗ, 3 м/с58%1009 гПаоблачно
19:00+10Ю, 2 м/с65%1009 гПаоблачно
20:00+9Ю, 2 м/с72%1009 гПаоблачно
21:00+8ЮВ, 2 м/с80%1009 гПаоблачно
22:00+7ЮВ, 1 м/с86%1009 гПаоблачнодождь
23:00+7Ю, 2 м/с88%1009 гПаоблачнодождь
24 апреля
00:00+8Ю, 3 м/с90%1009 гПаоблачнодождь
01:00+8Ю, 3 м/с91%1008 гПаоблачнодождь
02:00+8ЮВ, 3 м/с90%1008 гПаоблачнодождь
03:00+7ЮВ, 2 м/с92%1007 гПаоблачнодождь
04:00+7В, 3 м/с92%1006 гПаоблачнодождь
05:00+8В, 4 м/с89%1005 гПаоблачносл. дождь
06:00+8В, 5 м/с86%1003 гПаоблачнодождь
07:00+9В, 5 м/с85%1001 гПаоблачносл. дождь
08:00+10В, 6 м/с79%999 гПаоблачносл. дождь
09:00+10В, 6 м/с77%998 гПаоблачнодождь
10:00+11ЮВ, 5 м/с76%998 гПаоблачнодождь
11:00+11ЮВ, 6 м/с76%996 гПаоблачнодождь
12:00+11ЮВ, 5 м/с75%996 гПаоблачнодождь
13:00+11ЮВ, 5 м/с77%995 гПаоблачнодождь
14:00+11Ю, 5 м/с75%995 гПаоблачносл. дождь
15:00+11Ю, 5 м/с76%995 гПаоблачносл. дождь
16:00+11Ю, 5 м/с74%994 гПаоблачно
17:00+11Ю, 6 м/с76%995 гПаоблачносл. дождь
18:00+10Ю, 6 м/с79%996 гПаоблачно
19:00+10ЮЗ, 5 м/с84%996 гПаоблачносл. дождь
20:00+9ЮЗ, 5 м/с88%997 гПаоблачносл. дождь
21:00+9ЮЗ, 5 м/с88%998 гПаоблачносл. дождь
22:00+8ЮЗ, 5 м/с90%999 гПаоблачно
23:00+6З, 7 м/с90%1000 гПаоблачносл. дождь
25 апреля
00:00+5З, 6 м/с87%1002 гПаоблачносл. дождь
01:00+4З, 6 м/с85%1004 гПаоблачно
02:00+4З, 5 м/с84%1005 гПас прояснениями
03:00+4З, 5 м/с82%1006 гПас прояснениями
04:00+3З, 4 м/с87%1007 гПаясно
05:00+2ЮЗ, 3 м/с92%1008 гПаясно
06:00+3ЮЗ, 5 м/с86%1009 гПамалооблачно
07:00+5ЮЗ, 4 м/с73%1010 гПаоблачно
08:00+7ЮЗ, 5 м/с66%1011 гПамалооблачно
09:00+9ЮЗ, 5 м/с64%1011 гПаоблачно